Time;durP1;ratioP1;P1;durP2;ratioP2;P2;SDS_P1;SDS_P2;PMS_P1;PMS_P2;Temp;Humidity;BMP_temperature;BMP_pressure;BME280_temperature;BME280_humidity;BME280_pressure;Samples;Min_cycle;Max_cycle;Signal;HPM_P1;HPM_P2
2022/12/17 13:05:58;;;;;;;11.55;10.65;;;;;;;-1.59;100.00;102568.09;4904658;29;20042;-65
2022/12/17 13:08:24;;;;;;;12.38;11.38;;;;;;;-1.59;100.00;102574.34;4902335;29;20696;-66
2022/12/17 13:10:51;;;;;;;11.80;10.82;;;;;;;-1.58;100.00;102575.19;4906031;29;20510;-66
2022/12/17 13:13:18;;;;;;;11.65;10.65;;;;;;;-1.50;100.00;102569.28;4892432;29;20032;-66
2022/12/17 13:15:48;;;;;;;10.95;10.07;;;;;;;-1.47;100.00;102579.81;4892974;29;20052;-66
2022/12/17 13:18:27;;;;;;;11.60;10.70;;;;;;;-1.45;100.00;102573.34;4921184;29;20047;-66
2022/12/17 13:21:03;;;;;;;9.98;9.18;;;;;;;-1.42;100.00;102566.88;4911261;29;20032;-66
2022/12/17 13:23:35;;;;;;;11.82;10.82;;;;;;;-1.53;100.00;102572.19;4910032;29;20032;-67
2022/12/17 13:26:16;;;;;;;12.85;11.85;;;;;;;-1.58;100.00;102573.34;4907245;29;20063;-63
2022/12/17 13:28:47;;;;;;;11.95;10.95;;;;;;;-1.62;100.00;102563.81;4910684;29;20483;-65
2022/12/17 13:31:19;;;;;;;11.52;10.52;;;;;;;-1.66;100.00;102566.81;4916919;29;20119;-66
2022/12/17 13:34:05;;;;;;;11.52;10.52;;;;;;;-1.59;100.00;102568.09;4930160;29;20397;-61
2022/12/17 13:36:56;;;;;;;11.43;10.45;;;;;;;-1.84;100.00;102574.34;4918093;29;20131;-65
2022/12/17 13:39:30;;;;;;;12.10;11.05;;;;;;;-1.89;100.00;102561.19;4920866;29;20034;-66
2022/12/17 13:41:55;;;;;;;11.13;10.20;;;;;;;-1.93;100.00;102564.22;4929360;29;20067;-62
2022/12/17 13:44:25;;;;;;;12.25;11.25;;;;;;;-1.92;100.00;102566.81;4929623;29;20114;-69
2022/12/17 13:46:52;;;;;;;12.18;11.18;;;;;;;-1.95;100.00;102571.53;4915999;29;20040;-68
2022/12/17 13:49:26;;;;;;;12.23;11.23;;;;;;;-1.91;100.00;102568.53;4910063;29;20040;-66
2022/12/17 13:52:01;;;;;;;12.38;11.38;;;;;;;-1.95;100.00;102563.47;4908473;29;20380;-67
2022/12/17 13:54:26;;;;;;;12.07;11.07;;;;;;;-1.89;100.00;102571.13;4909515;29;20137;-62
2022/12/17 13:56:53;;;;;;;12.85;11.77;;;;;;;-1.96;100.00;102556.38;4908452;29;20036;-66
2022/12/17 13:59:22;;;;;;;13.02;11.93;;;;;;;-1.96;100.00;102559.91;4908128;29;20024;-62
2022/12/17 14:01:53;;;;;;;12.32;11.32;;;;;;;-1.93;100.00;102564.22;4907380;29;20076;-66
2022/12/17 14:04:27;;;;;;;12.68;11.57;;;;;;;-1.98;100.00;102561.84;4906546;29;20051;-67
2022/12/17 14:06:56;;;;;;;12.65;11.60;;;;;;;-1.99;100.00;102570.03;4907760;29;20046;-66
2022/12/17 14:09:31;;;;;;;12.35;11.35;;;;;;;-1.96;100.00;102565.31;4910122;29;20472;-67
2022/12/17 14:14:46;;;;;;;12.82;11.73;;;;;;;-2.02;100.00;102568.44;4908502;29;20428;-65
2022/12/17 14:17:23;;;;;;;11.63;10.63;;;;;;;-1.99;100.00;102570.88;4910531;29;20051;-67
2022/12/17 14:19:57;;;;;;;12.70;11.63;;;;;;;-2.05;100.00;102570.47;4914219;29;20065;-66
2022/12/17 14:22:32;;;;;;;13.02;11.93;;;;;;;-2.06;100.00;102575.00;4905017;29;20079;-67
2022/12/17 14:24:57;;;;;;;12.25;11.25;;;;;;;-2.09;100.00;102569.81;4908858;29;20739;-65
2022/12/17 14:27:29;;;;;;;13.35;12.25;;;;;;;-2.08;100.00;102582.28;4910667;29;20039;-68
2022/12/17 14:29:55;;;;;;;12.65;11.55;;;;;;;-2.11;100.00;102580.69;4912265;29;20024;-68
2022/12/17 14:32:23;;;;;;;12.63;11.55;;;;;;;-2.15;100.00;102589.94;4911508;29;20079;-64
2022/12/17 14:34:49;;;;;;;12.23;11.23;;;;;;;-2.19;100.00;102584.88;4911444;29;20375;-67
2022/12/17 14:37:18;;;;;;;12.98;11.88;;;;;;;-2.23;100.00;102586.94;4904585;29;20040;-62
2022/12/17 14:39:46;;;;;;;12.77;11.68;;;;;;;-2.26;100.00;102589.81;4894651;29;20059;-67
2022/12/17 14:42:24;;;;;;;13.27;12.17;;;;;;;-2.29;100.00;102590.00;4912015;29;20388;-67
2022/12/17 14:44:55;;;;;;;13.20;12.10;;;;;;;-2.32;100.00;102584.84;4928346;29;20363;-65
2022/12/17 14:47:23;;;;;;;12.63;11.52;;;;;;;-2.32;100.00;102590.25;4909588;29;20067;-64
2022/12/17 14:50:10;;;;;;;13.57;12.38;;;;;;;-2.29;100.00;102589.16;4921358;29;20080;-65
2022/12/17 14:52:53;;;;;;;11.95;10.88;;;;;;;-2.38;100.00;102590.66;4914982;29;20187;-67
2022/12/17 14:55:29;;;;;;;12.90;11.80;;;;;;;-2.41;100.00;102597.09;4914115;29;20420;-66
2022/12/17 14:58:19;;;;;;;13.65;12.45;;;;;;;-2.38;100.00;102593.34;4920334;29;20114;-66
2022/12/17 15:01:03;;;;;;;13.43;12.23;;;;;;;-2.39;100.00;102600.53;4932769;29;20082;-66
2022/12/17 15:03:36;;;;;;;13.75;12.57;;;;;;;-2.32;100.00;102602.84;4924689;29;20133;-66
2022/12/17 15:06:10;;;;;;;12.02;11.02;;;;;;;-2.29;100.00;102608.84;4927782;29;20043;-66
2022/12/17 15:08:39;;;;;;;12.35;11.35;;;;;;;-2.40;100.00;102606.88;4932709;29;20024;-66
2022/12/17 15:11:04;;;;;;;12.50;11.40;;;;;;;-2.42;100.00;102605.28;4929199;29;20115;-65
2022/12/17 15:13:30;;;;;;;11.93;10.80;;;;;;;-2.49;100.00;102603.94;4913026;29;20531;-65
2022/12/17 15:15:56;;;;;;;11.80;10.73;;;;;;;-2.53;100.00;102618.59;4907939;29;20028;-66
2022/12/17 15:18:21;;;;;;;12.35;11.25;;;;;;;-2.54;100.00;102623.09;4894822;29;20028;-66
2022/12/17 15:20:46;;;;;;;12.73;11.35;;;;;;;-2.55;100.00;102620.50;4897466;29;20032;-66
2022/12/17 15:23:17;;;;;;;12.10;11.10;;;;;;;-2.56;100.00;102630.41;4911219;29;20036;-66
2022/12/17 15:25:44;;;;;;;19.70;12.93;;;;;;;-2.57;100.00;102638.59;4913582;29;20036;-66
2022/12/17 15:28:10;;;;;;;13.55;11.48;;;;;;;-2.61;100.00;102636.09;4912068;29;20381;-66
2022/12/17 15:30:35;;;;;;;124.38;26.08;;;;;;;-2.56;100.00;102637.63;4913939;29;20059;-66
2022/12/17 15:33:02;;;;;;;56.00;18.20;;;;;;;-2.54;100.00;102635.66;4911567;29;20075;-64
2022/12/17 15:35:28;;;;;;;12.68;11.55;;;;;;;-2.54;100.00;102641.91;4896903;29;20052;-66
2022/12/17 15:37:53;;;;;;;13.27;12.07;;;;;;;-2.50;100.00;102650.66;4911639;29;20020;-66
2022/12/17 15:40:18;;;;;;;12.77;11.68;;;;;;;-2.49;100.00;102645.16;4921705;29;20067;-66
2022/12/17 15:45:27;;;;;;;12.45;11.25;;;;;;;-2.47;100.00;102645.09;4913130;29;20052;-66
2022/12/17 15:47:52;;;;;;;14.55;13.25;;;;;;;-2.46;100.00;102638.72;4912758;29;20036;-66
2022/12/17 15:50:18;;;;;;;30.33;22.67;;;;;;;-2.45;100.00;102651.22;4912268;29;20055;-64
2022/12/17 15:52:43;;;;;;;13.07;11.88;;;;;;;-2.44;100.00;102643.03;4906873;29;20048;-66
2022/12/17 15:55:12;;;;;;;17.25;14.98;;;;;;;-2.44;100.00;102640.34;4912122;29;20156;-66
2022/12/17 15:57:37;;;;;;;12.25;11.10;;;;;;;-2.46;100.00;102649.50;4928143;29;20028;-62
2022/12/17 16:00:03;;;;;;;13.02;11.75;;;;;;;-2.45;100.00;102644.00;4918450;29;20034;-64
2022/12/17 16:02:28;;;;;;;13.05;11.93;;;;;;;-2.45;100.00;102648.53;4911162;29;20048;-66
2022/12/17 16:04:54;;;;;;;12.85;11.65;;;;;;;-2.45;100.00;102652.06;4913038;29;20028;-65
2022/12/17 16:07:19;;;;;;;12.10;11.00;;;;;;;-2.50;100.00;102654.19;4918377;29;20451;-66
2022/12/17 16:09:44;;;;;;;12.55;11.45;;;;;;;-2.48;100.00;102654.13;4918617;29;20042;-66
2022/12/17 16:12:10;;;;;;;11.60;10.60;;;;;;;-2.53;100.00;102651.72;4901482;29;20117;-66
2022/12/17 16:14:35;;;;;;;11.02;10.13;;;;;;;-2.63;100.00;102659.53;4912282;29;20032;-63
2022/12/17 16:17:00;;;;;;;11.00;10.00;;;;;;;-2.69;100.00;102659.06;4912297;29;20079;-65
2022/12/17 16:19:26;;;;;;;11.88;10.88;;;;;;;-2.82;100.00;102661.69;4911038;29;20039;-66
2022/12/17 16:21:51;;;;;;;11.77;10.73;;;;;;;-2.83;100.00;102667.19;4909521;29;20020;-65
2022/12/17 16:24:16;;;;;;;12.25;11.15;;;;;;;-2.85;100.00;102656.50;4912073;29;20027;-66
2022/12/17 16:26:42;;;;;;;12.50;11.30;;;;;;;-2.91;100.00;102662.28;4896040;29;20039;-66
2022/12/17 16:29:07;;;;;;;12.60;11.48;;;;;;;-2.94;100.00;102654.41;4892490;29;20036;-64
2022/12/17 16:31:32;;;;;;;12.75;11.55;;;;;;;-2.97;100.00;102665.38;4907973;29;20373;-66
2022/12/17 16:33:58;;;;;;;12.38;11.27;;;;;;;-2.97;100.00;102665.38;4920550;29;20032;-65
2022/12/17 16:36:23;;;;;;;12.27;11.18;;;;;;;-3.00;100.00;102662.88;4928985;29;20035;-65
2022/12/17 16:38:53;;;;;;;13.27;12.00;;;;;;;-3.07;100.00;102659.72;4931055;29;20038;-66
2022/12/17 16:41:20;;;;;;;13.68;12.48;;;;;;;-3.11;100.00;102670.75;4926309;29;20032;-66
2022/12/17 16:43:45;;;;;;;13.25;11.95;;;;;;;-3.17;100.00;102667.50;4908165;29;20055;-66
2022/12/17 16:46:29;;;;;;;13.05;11.80;;;;;;;-3.16;100.00;102658.47;4912912;29;20024;-65
2022/12/17 16:48:56;;;;;;;12.55;11.38;;;;;;;-3.16;100.00;102657.59;4912698;29;20052;-66
2022/12/17 16:51:24;;;;;;;12.70;11.40;;;;;;;-3.19;100.00;102658.69;4910788;29;20028;-66
2022/12/17 16:53:49;;;;;;;12.82;11.52;;;;;;;-3.15;100.00;102662.00;4911737;29;20055;-69
2022/12/17 16:56:20;;;;;;;12.80;11.60;;;;;;;-3.21;100.00;102663.28;4916084;29;20526;-67
2022/12/17 16:58:46;;;;;;;13.07;11.77;;;;;;;-3.24;100.00;102678.75;4919760;29;20032;-66
2022/12/17 17:01:12;;;;;;;13.27;12.07;;;;;;;-3.29;100.00;102668.28;4922362;29;20032;-67
2022/12/17 17:03:40;;;;;;;11.63;10.43;;;;;;;-3.32;100.00;102679.19;4912048;29;20476;-66
2022/12/17 17:06:06;;;;;;;11.65;10.55;;;;;;;-3.38;100.00;102665.31;4910971;29;20045;-63
2022/12/17 17:08:33;;;;;;;11.55;10.45;;;;;;;-3.40;100.00;102674.31;4911322;29;20062;-67
2022/12/17 17:11:15;;;;;;;11.38;10.27;;;;;;;-3.38;100.00;102674.22;4926729;29;20028;-66
2022/12/17 17:13:41;;;;;;;11.30;10.13;;;;;;;-3.44;100.00;102679.97;4909989;29;20056;-65
2022/12/17 17:16:08;;;;;;;11.32;10.23;;;;;;;-3.50;100.00;102677.66;4929471;29;20135;-67
2022/12/17 17:18:33;;;;;;;11.20;10.10;;;;;;;-3.52;100.00;102684.94;4931208;29;20051;-62
2022/12/17 17:21:22;;;;;;;10.73;9.63;;;;;;;-3.49;100.00;102682.09;4913544;29;20040;-67
2022/12/17 17:23:50;;;;;;;12.10;10.65;;;;;;;-3.60;100.00;102685.41;4908120;29;20055;-65
2022/12/17 17:26:16;;;;;;;12.27;10.95;;;;;;;-3.62;100.00;102681.09;4910036;29;20107;-66
2022/12/17 17:28:44;;;;;;;14.65;10.00;;;;;;;-3.72;100.00;102683.47;4910645;29;20031;-66
2022/12/17 17:31:12;;;;;;;11.68;10.57;;;;;;;-3.75;100.00;102676.47;4910759;29;20040;-66
2022/12/17 17:33:41;;;;;;;12.68;11.48;;;;;;;-3.70;100.00;102684.22;4911387;29;20109;-65
2022/12/17 17:36:13;;;;;;;11.73;10.55;;;;;;;-3.67;100.00;102687.59;4911500;29;20032;-60
2022/12/17 17:38:39;;;;;;;11.93;10.73;;;;;;;-3.61;100.00;102699.78;4906495;29;20036;-63
2022/12/17 17:41:06;;;;;;;12.27;11.07;;;;;;;-3.58;100.00;102698.75;4908086;29;20503;-66
2022/12/17 17:43:31;;;;;;;11.73;10.63;;;;;;;-3.55;100.00;102703.91;4924027;29;20398;-66
2022/12/17 17:46:04;;;;;;;12.20;11.00;;;;;;;-3.56;100.00;102699.50;4916205;29;20036;-65
2022/12/17 17:48:34;;;;;;;11.55;10.38;;;;;;;-3.48;100.00;102699.91;4911326;29;20040;-66
2022/12/17 17:51:17;;;;;;;12.80;11.55;;;;;;;-3.53;100.00;102702.03;4909353;29;20079;-67
2022/12/17 17:53:44;;;;;;;11.93;10.73;;;;;;;-3.57;100.00;102703.16;4920220;29;20032;-66
2022/12/17 17:56:14;;;;;;;12.63;11.40;;;;;;;-3.54;100.00;102698.47;4927656;29;20020;-65
2022/12/17 17:58:49;;;;;;;12.80;11.60;;;;;;;-3.54;100.00;102690.41;4913997;29;20440;-67
2022/12/17 18:01:18;;;;;;;11.88;10.68;;;;;;;-3.52;100.00;102688.50;4913742;29;20051;-65
2022/12/17 18:03:44;;;;;;;11.65;10.45;;;;;;;-3.50;100.00;102699.13;4913328;29;20075;-65
2022/12/17 18:06:12;;;;;;;11.77;10.68;;;;;;;-3.52;100.00;102699.25;4914955;29;20024;-63
2022/12/17 18:08:38;;;;;;;11.80;10.68;;;;;;;-3.55;100.00;102698.53;4913458;29;20430;-64
2022/12/17 18:11:05;;;;;;;10.68;9.65;;;;;;;-3.63;100.00;102706.22;4913359;29;20033;-67
2022/12/17 18:16:15;;;;;;;11.88;10.60;;;;;;;-3.80;100.00;102713.47;4914512;29;20044;-64
2022/12/17 18:18:41;;;;;;;11.13;10.02;;;;;;;-3.83;100.00;102710.97;4914308;29;20040;-66
2022/12/17 18:21:10;;;;;;;12.15;11.05;;;;;;;-3.84;100.00;102705.69;4913363;29;20043;-66
2022/12/17 18:23:36;;;;;;;12.95;10.52;;;;;;;-3.85;100.00;102717.38;4914677;29;20032;-66
2022/12/17 18:26:16;;;;;;;12.13;11.00;;;;;;;-3.86;100.00;102719.19;4912362;29;20020;-66
2022/12/17 18:28:43;;;;;;;11.43;10.30;;;;;;;-3.85;100.00;102723.63;4912437;29;20403;-63
2022/12/17 18:31:14;;;;;;;11.60;10.40;;;;;;;-3.85;100.00;102723.63;4912546;29;20099;-66
2022/12/17 18:33:42;;;;;;;11.65;10.52;;;;;;;-3.86;100.00;102713.81;4911935;29;20032;-63
2022/12/17 18:36:12;;;;;;;12.60;11.40;;;;;;;-3.81;100.00;102711.72;4913502;29;20110;-63
2022/12/17 18:38:38;;;;;;;12.02;10.85;;;;;;;-3.81;100.00;102711.72;4912470;29;20028;-62
2022/12/17 18:43:59;;;;;;;14.13;10.75;;;;;;;-3.81;100.00;102710.88;4911620;29;20633;-66
2022/12/17 18:46:25;;;;;;;11.75;9.90;;;;;;;-3.86;100.00;102700.41;4911662;29;20080;-63
2022/12/17 18:48:52;;;;;;;10.32;9.32;;;;;;;-3.90;100.00;102698.88;4912663;29;20455;-66
2022/12/17 18:51:19;;;;;;;11.05;9.90;;;;;;;-3.99;100.00;102708.34;4911522;29;20025;-65
2022/12/17 18:53:44;;;;;;;18.67;10.82;;;;;;;-4.05;100.00;102707.84;4913855;29;20036;-66
2022/12/17 18:56:11;;;;;;;13.80;10.85;;;;;;;-4.07;100.00;102712.41;4913849;29;20125;-65
2022/12/17 18:58:36;;;;;;;11.15;9.88;;;;;;;-4.00;100.00;102705.75;4913389;29;20039;-66
2022/12/17 19:01:03;;;;;;;11.35;10.15;;;;;;;-4.07;100.00;102707.03;4911999;29;20030;-63
2022/12/17 19:03:28;;;;;;;11.75;10.65;;;;;;;-4.03;100.00;102705.91;4911889;29;20494;-66
2022/12/17 19:05:53;;;;;;;12.30;11.00;;;;;;;-3.99;100.00;102700.28;4912764;29;20024;-62
2022/12/17 19:08:19;;;;;;;11.60;10.40;;;;;;;-3.97;100.00;102703.72;4911991;29;20039;-64
2022/12/17 19:10:44;;;;;;;11.80;10.57;;;;;;;-3.97;100.00;102714.47;4910956;29;20028;-66
2022/12/17 19:13:09;;;;;;;10.80;9.75;;;;;;;-4.01;100.00;102712.91;4911130;29;20020;-65
2022/12/17 19:15:34;;;;;;;11.13;10.00;;;;;;;-4.02;100.00;102713.00;4913146;29;20435;-66
2022/12/17 19:18:00;;;;;;;12.05;10.82;;;;;;;-4.04;100.00;102715.78;4912239;29;20020;-66
2022/12/17 19:20:25;;;;;;;12.52;10.60;;;;;;;-4.07;100.00;102725.81;4911034;29;20404;-65
2022/12/17 19:22:50;;;;;;;12.48;10.95;;;;;;;-4.07;100.00;102728.50;4911838;29;20063;-65
2022/12/17 19:25:16;;;;;;;11.95;10.85;;;;;;;-4.05;100.00;102743.59;4912112;29;20142;-66
2022/12/17 19:27:41;;;;;;;11.35;10.25;;;;;;;-4.01;100.00;102734.38;4911140;29;20476;-66
2022/12/17 19:30:07;;;;;;;11.85;10.65;;;;;;;-4.00;100.00;102738.81;4912606;29;20039;-65
2022/12/17 19:32:33;;;;;;;12.25;11.05;;;;;;;-4.03;100.00;102735.44;4911344;29;20062;-66
2022/12/17 19:34:58;;;;;;;12.50;11.27;;;;;;;-4.03;100.00;102735.44;4912973;29;20032;-66
2022/12/17 19:37:23;;;;;;;12.32;11.13;;;;;;;-3.99;100.00;102732.50;4912897;29;20055;-65
2022/12/17 19:39:48;;;;;;;12.45;11.13;;;;;;;-3.93;100.00;102742.84;4912677;29;20047;-67
2022/12/17 19:42:23;;;;;;;11.52;10.00;;;;;;;-3.92;100.00;102749.09;4912141;29;20024;-63
2022/12/17 19:44:49;;;;;;;11.52;10.38;;;;;;;-4.03;100.00;102740.81;4904541;29;20074;-65
2022/12/17 19:47:14;;;;;;;11.27;10.20;;;;;;;-4.05;100.00;102738.22;4910583;29;20039;-62
2022/12/17 19:49:40;;;;;;;10.98;9.98;;;;;;;-4.02;100.00;102743.38;4926166;29;20028;-66
2022/12/17 19:52:05;;;;;;;11.50;10.40;;;;;;;-4.02;100.00;102738.03;4910762;29;20040;-66
2022/12/17 19:54:30;;;;;;;11.25;10.13;;;;;;;-4.02;100.00;102742.53;4912170;29;20115;-66
2022/12/17 19:56:56;;;;;;;11.18;10.05;;;;;;;-4.03;100.00;102735.44;4911227;29;20024;-66
2022/12/17 19:59:21;;;;;;;14.63;10.20;;;;;;;-4.08;100.00;102742.88;4910916;29;20036;-64
2022/12/17 20:01:47;;;;;;;11.40;10.07;;;;;;;-4.09;100.00;102754.59;4909128;29;20063;-66
2022/12/17 20:04:14;;;;;;;11.55;10.50;;;;;;;-4.10;100.00;102750.19;4912270;29;20043;-66
2022/12/17 20:06:40;;;;;;;11.32;10.30;;;;;;;-4.12;100.00;102760.13;4911664;29;20039;-66
2022/12/17 20:09:06;;;;;;;9.90;9.00;;;;;;;-4.14;100.00;102760.22;4912010;29;20036;-64
2022/12/17 20:11:32;;;;;;;9.80;8.80;;;;;;;-4.24;100.00;102761.69;4910000;29;20043;-66
2022/12/17 20:13:58;;;;;;;9.90;8.90;;;;;;;-4.34;100.00;102768.53;4909790;29;20036;-66
2022/12/17 20:16:24;;;;;;;9.60;8.70;;;;;;;-4.41;100.00;102768.00;4910664;29;20060;-66
2022/12/17 20:18:50;;;;;;;9.88;8.88;;;;;;;-4.37;100.00;102771.38;4910972;29;20040;-64
2022/12/17 20:21:16;;;;;;;10.25;9.35;;;;;;;-4.44;100.00;102771.72;4910114;29;20332;-66
2022/12/17 20:23:41;;;;;;;10.90;9.90;;;;;;;-4.44;100.00;102774.41;4910380;29;20024;-66
2022/12/17 20:26:09;;;;;;;10.82;9.82;;;;;;;-4.39;100.00;102779.53;4911475;29;20052;-63
2022/12/17 20:28:35;;;;;;;10.40;9.40;;;;;;;-4.35;100.00;102780.22;4910493;29;20471;-65
2022/12/17 20:31:02;;;;;;;11.00;10.00;;;;;;;-4.33;100.00;102776.47;4909326;29;20083;-66
2022/12/17 20:33:28;;;;;;;10.68;9.68;;;;;;;-4.34;100.00;102768.53;4912073;29;20632;-66
2022/12/17 20:35:54;;;;;;;10.35;9.35;;;;;;;-4.34;100.00;102769.41;4912001;29;20092;-66
2022/12/17 20:38:20;;;;;;;10.98;9.98;;;;;;;-4.32;100.00;102767.47;4911210;29;20116;-65
2022/12/17 20:40:45;;;;;;;11.07;10.07;;;;;;;-4.34;100.00;102772.06;4911294;29;20580;-66
2022/12/17 20:43:11;;;;;;;11.50;10.50;;;;;;;-4.38;100.00;102767.84;4911327;29;20178;-67
2022/12/17 20:45:36;;;;;;;10.70;9.70;;;;;;;-4.37;100.00;102768.69;4911300;29;20032;-66
2022/12/17 20:48:01;;;;;;;10.23;9.32;;;;;;;-4.43;100.00;102764.53;4910764;29;20036;-66
2022/12/17 20:50:27;;;;;;;10.13;9.10;;;;;;;-4.48;100.00;102754.06;4910129;29;20071;-66
2022/12/17 20:52:52;;;;;;;9.90;9.00;;;;;;;-4.48;100.00;102750.53;4909703;29;20395;-64
2022/12/17 20:55:18;;;;;;;10.32;9.43;;;;;;;-4.46;100.00;102748.63;4910920;29;20028;-66
2022/12/17 20:57:43;;;;;;;9.40;8.50;;;;;;;-4.47;100.00;102746.88;4910074;29;20028;-66
2022/12/17 21:00:09;;;;;;;10.00;9.10;;;;;;;-4.49;100.00;102748.81;4909888;29;20372;-67
2022/12/17 21:02:35;;;;;;;10.13;9.13;;;;;;;-4.52;100.00;102740.91;4910778;29;20055;-66
2022/12/17 21:05:00;;;;;;;10.45;9.55;;;;;;;-4.55;100.00;102747.34;4909757;29;20028;-66
2022/12/17 21:07:26;;;;;;;10.30;9.40;;;;;;;-4.54;100.00;102759.78;4910990;29;20035;-64
2022/12/17 21:09:51;;;;;;;11.50;10.43;;;;;;;-4.57;100.00;102759.09;4910641;29;20056;-66
2022/12/17 21:12:17;;;;;;;10.98;9.98;;;;;;;-4.60;100.00;102757.44;4910746;29;20107;-62
2022/12/17 21:14:42;;;;;;;10.65;9.65;;;;;;;-4.54;100.00;102756.25;4910326;29;20024;-66
2022/12/17 21:17:07;;;;;;;11.00;9.93;;;;;;;-4.57;100.00;102749.22;4910234;29;20040;-63
2022/12/17 21:19:32;;;;;;;10.27;9.38;;;;;;;-4.61;100.00;102754.84;4911152;29;20527;-66
2022/12/17 21:21:58;;;;;;;10.45;9.45;;;;;;;-4.57;100.00;102756.41;4909556;29;20036;-66
2022/12/17 21:24:23;;;;;;;10.65;9.65;;;;;;;-4.55;100.00;102758.06;4910350;29;20012;-66
2022/12/17 21:26:48;;;;;;;10.85;9.85;;;;;;;-4.49;100.00;102760.41;4910816;29;20436;-62
2022/12/17 21:29:15;;;;;;;11.13;10.07;;;;;;;-4.47;100.00;102766.53;4914029;29;20170;-67
2022/12/17 21:31:48;;;;;;;10.82;9.85;;;;;;;-4.46;100.00;102767.38;4911989;29;20059;-66
2022/12/17 21:34:20;;;;;;;11.25;10.25;;;;;;;-4.44;100.00;102769.03;4913395;29;20051;-66
2022/12/17 21:36:46;;;;;;;11.02;9.93;;;;;;;-4.55;100.00;102770.59;4914506;29;20480;-66
2022/12/17 21:39:13;;;;;;;11.07;10.07;;;;;;;-4.62;100.00;102770.06;4913686;29;20119;-66
2022/12/17 21:41:39;;;;;;;10.52;9.52;;;;;;;-4.64;100.00;102776.47;4913984;29;20106;-66
2022/12/17 21:44:07;;;;;;;11.23;10.23;;;;;;;-4.64;100.00;102777.34;4913753;29;20103;-63
2022/12/17 21:46:33;;;;;;;11.10;10.00;;;;;;;-4.65;100.00;102774.75;4913813;29;20024;-66
2022/12/17 21:49:00;;;;;;;10.93;9.93;;;;;;;-4.66;100.00;102768.53;4913194;29;20299;-65
2022/12/17 21:51:27;;;;;;;11.68;10.60;;;;;;;-4.73;100.00;102778.69;4914168;29;20031;-64
2022/12/17 21:53:54;;;;;;;10.88;9.90;;;;;;;-4.75;100.00;102777.94;4913764;29;20035;-64
2022/12/17 21:56:20;;;;;;;11.80;10.70;;;;;;;-4.74;100.00;102782.34;4912616;29;20052;-62
2022/12/17 21:58:46;;;;;;;12.45;11.35;;;;;;;-4.81;100.00;102783.63;4910962;29;20503;-63
2022/12/17 22:01:15;;;;;;;10.55;9.55;;;;;;;-4.81;100.00;102786.31;4914988;29;20064;-67
2022/12/17 22:03:40;;;;;;;11.30;10.27;;;;;;;-4.86;100.00;102790.19;4914858;29;20023;-66
2022/12/17 22:06:08;;;;;;;11.30;10.30;;;;;;;-4.83;100.00;102795.38;4914261;29;20040;-67
2022/12/17 22:08:33;;;;;;;;;;;;;;;-4.80;100.00;102788.03;4914368;29;20508;-66
2022/12/17 22:11:07;;;;;;;11.27;10.18;;;;;;;-4.82;100.00;102797.94;4914380;29;20005;-65
2022/12/17 22:16:16;;;;;;;11.38;10.27;;;;;;;-4.86;100.00;102803.59;4914007;29;20400;-61
2022/12/17 22:18:41;;;;;;;11.60;10.50;;;;;;;-4.87;100.00;102804.50;4912619;29;20028;-66
2022/12/17 22:21:06;;;;;;;11.02;10.02;;;;;;;-4.88;100.00;102806.34;4913291;29;20028;-66
2022/12/17 22:23:31;;;;;;;11.27;10.27;;;;;;;-4.90;100.00;102810.06;4912672;29;20070;-66
2022/12/17 22:25:57;;;;;;;11.52;10.43;;;;;;;-4.91;100.00;102814.56;4913196;29;20163;-66
2022/12/17 22:28:22;;;;;;;11.90;10.70;;;;;;;-4.94;100.00;102805.81;4910480;29;20500;-64
2022/12/17 22:33:31;;;;;;;11.55;10.48;;;;;;;-4.98;100.00;102800.59;4913627;29;20498;-66
2022/12/17 22:36:03;;;;;;;11.98;10.88;;;;;;;-4.99;100.00;102803.38;4912955;29;20028;-66
2022/12/17 22:38:28;;;;;;;11.43;10.32;;;;;;;-5.00;100.00;102805.19;4910827;29;20539;-64
2022/12/17 22:40:54;;;;;;;11.70;10.65;;;;;;;-5.02;100.00;102798.16;4914291;29;20028;-67
2022/12/17 22:43:28;;;;;;;11.68;10.60;;;;;;;-5.05;100.00;102798.34;4911892;29;20468;-67
2022/12/17 22:45:58;;;;;;;12.07;10.98;;;;;;;-5.08;100.00;102798.50;4914092;29;20115;-66
2022/12/17 22:48:24;;;;;;;11.32;10.23;;;;;;;-5.15;100.00;102800.66;4913194;29;20024;-67
2022/12/17 22:50:49;;;;;;;10.63;9.63;;;;;;;-5.18;100.00;102813.31;4914022;29;20119;-66
2022/12/17 22:53:14;;;;;;;11.68;10.68;;;;;;;-5.24;100.00;102806.47;4917704;29;20577;-66
2022/12/17 22:55:39;;;;;;;11.30;10.23;;;;;;;-5.29;100.00;102804.03;4925417;29;20032;-63
2022/12/17 22:58:05;;;;;;;11.27;10.18;;;;;;;-5.32;100.00;102797.97;4911178;29;20065;-65
2022/12/17 23:00:32;;;;;;;10.52;9.52;;;;;;;-5.37;100.00;102797.34;4912320;29;20040;-64
2022/12/17 23:02:58;;;;;;;11.40;10.35;;;;;;;-5.39;100.00;102797.44;4911355;29;20047;-63
2022/12/17 23:05:25;;;;;;;11.10;10.00;;;;;;;-5.43;100.00;102795.84;4917849;29;20033;-64
2022/12/17 23:07:51;;;;;;;10.60;9.60;;;;;;;-5.48;100.00;102801.44;4914026;29;20031;-60
2022/12/17 23:10:17;;;;;;;10.88;9.88;;;;;;;-5.53;100.00;102791.91;4914112;29;20034;-64
2022/12/17 23:12:49;;;;;;;11.25;10.23;;;;;;;-5.58;100.00;102789.47;4917602;29;20028;-64
2022/12/17 23:15:20;;;;;;;11.10;10.05;;;;;;;-5.61;100.00;102786.09;4914692;29;20480;-64
2022/12/17 23:17:45;;;;;;;11.30;10.20;;;;;;;-5.62;100.00;102787.06;4912732;29;20036;-62
2022/12/17 23:20:11;;;;;;;10.45;9.45;;;;;;;-5.63;100.00;102780.81;4920565;29;20024;-63
2022/12/17 23:22:36;;;;;;;10.32;9.43;;;;;;;-5.66;100.00;102774.75;4932819;29;20486;-64
2022/12/17 23:25:03;;;;;;;10.95;9.95;;;;;;;-5.74;100.00;102772.47;4932520;29;20111;-64
2022/12/17 23:27:28;;;;;;;10.65;9.75;;;;;;;-5.77;100.00;102789.56;4915327;29;20522;-64
2022/12/17 23:29:53;;;;;;;11.02;10.02;;;;;;;-5.80;100.00;102795.03;4914038;29;20048;-64
2022/12/17 23:32:19;;;;;;;10.32;9.32;;;;;;;-5.79;100.00;102798.59;4920333;29;20028;-64
2022/12/17 23:34:44;;;;;;;10.15;9.25;;;;;;;-5.88;100.00;102796.38;4932540;29;20024;-64
2022/12/17 23:37:09;;;;;;;9.80;8.90;;;;;;;-6.03;100.00;102792.72;4918926;29;20032;-64
2022/12/17 23:39:35;;;;;;;10.02;9.07;;;;;;;-6.11;100.00;102784.19;4914017;29;20020;-64
2022/12/17 23:42:00;;;;;;;10.10;9.20;;;;;;;-6.16;100.00;102781.72;4912670;29;20124;-64
2022/12/17 23:44:25;;;;;;;10.73;9.73;;;;;;;-6.14;100.00;102784.31;4911682;29;20387;-61
2022/12/17 23:46:50;;;;;;;10.15;9.15;;;;;;;-6.16;100.00;102780.88;4912109;29;20068;-64
2022/12/17 23:49:16;;;;;;;9.65;8.75;;;;;;;-6.15;100.00;102777.25;4913301;29;20107;-64
2022/12/17 23:51:41;;;;;;;9.80;8.90;;;;;;;-6.18;100.00;102772.03;4931602;29;20439;-64
2022/12/17 23:54:07;;;;;;;9.40;8.60;;;;;;;-6.22;100.00;102784.72;4933056;29;20051;-63
2022/12/17 23:56:32;;;;;;;9.90;9.00;;;;;;;-6.24;100.00;102796.41;4924103;29;20036;-65
2022/12/17 23:59:00;;;;;;;9.70;8.80;;;;;;;-6.22;100.00;102800.75;4911252;29;20040;-64
